QTR411 OTHH-YPPH
Flight info
| Callsign | QTR411 |
|---|---|
| Flight time | N/A |
| Altitude | 33000 |
| Route | BUNDU3E BUNDU B415 SIXIV N318 TOLDA P570 KITAL L894 BIBGO DCT SOLIH/N0489F350 DCT 07S080E 11S083E 16S087E 19S090E/N0481F370 24S096E 28S103E 30S108E DCT OPEGA T12 PH DCT |
| Aircraft | B77W/H-SDE1E2E3FGHIJ2J3J4J5M1RWXY/LB1D1 |
Departure
| Time | N/A |
|---|---|
| Airport | Hamad International Airport (OTHH) |
Arrival
| Time | 2026-04-30 12:31 |
|---|---|
| Airport | Perth International Airport (YPPH) |
| Time | Latitude | Longitude | Altitude | Speed | Heading |
|---|---|---|---|---|---|
| 2026-04-30 10:22 | -17.61424 | 88.59619 | 31200 ft | 516 kts | 139° |
| 2026-04-30 10:22 | -17.64023 | 88.62222 | 31200 ft | 516 kts | 139° |
| 2026-04-30 10:23 | -17.69087 | 88.67298 | 31199 ft | 517 kts | 139° |
| 2026-04-30 10:23 | -17.74347 | 88.72569 | 31332 ft | 532 kts | 139° |
| 2026-04-30 10:24 | -17.79756 | 88.77996 | 31585 ft | 542 kts | 139° |
| 2026-04-30 10:24 | -17.88235 | 88.86523 | 32414 ft | 545 kts | 139° |
| 2026-04-30 10:24 | -18.10140 | 89.08612 | 34475 ft | 547 kts | 139° |
| 2026-04-30 10:25 | -18.23788 | 89.22394 | 35663 ft | 543 kts | 140° |
| 2026-04-30 10:25 | -18.26503 | 89.25140 | 35967 ft | 540 kts | 140° |
| 2026-04-30 10:25 | -18.29165 | 89.27833 | 36288 ft | 537 kts | 140° |
| 2026-04-30 10:25 | -18.31854 | 89.30556 | 36564 ft | 535 kts | 140° |
| 2026-04-30 10:26 | -18.34522 | 89.33258 | 36822 ft | 533 kts | 140° |
| 2026-04-30 10:26 | -18.37313 | 89.36087 | 36957 ft | 534 kts | 140° |
| 2026-04-30 10:26 | -18.51198 | 89.50175 | 37147 ft | 541 kts | 140° |
| 2026-04-30 10:27 | -18.54747 | 89.53784 | 37031 ft | 545 kts | 140° |
| 2026-04-30 10:27 | -18.58545 | 89.57652 | 37080 ft | 538 kts | 140° |
| 2026-04-30 10:27 | -18.70110 | 89.69442 | 37015 ft | 527 kts | 140° |
| 2026-04-30 10:27 | -18.84457 | 89.84092 | 36974 ft | 523 kts | 140° |
| 2026-04-30 10:28 | -18.87871 | 89.87578 | 37089 ft | 525 kts | 140° |
| 2026-04-30 10:28 | -18.91094 | 89.90871 | 37061 ft | 529 kts | 140° |
| 2026-04-30 10:28 | -18.98288 | 89.98241 | 37179 ft | 535 kts | 140° |
| 2026-04-30 10:28 | -19.01103 | 90.01139 | 37120 ft | 540 kts | 139° |
| 2026-04-30 10:29 | -19.07259 | 90.08045 | 37116 ft | 544 kts | 135° |
| 2026-04-30 10:29 | -19.37739 | 90.43058 | 37140 ft | 550 kts | 136° |
| 2026-04-30 10:30 | -19.58162 | 90.66529 | 37032 ft | 548 kts | 136° |
| 2026-04-30 10:30 | -19.76251 | 90.87362 | 36950 ft | 538 kts | 136° |
| 2026-04-30 10:30 | -19.82479 | 90.94561 | 36987 ft | 539 kts | 136° |
| 2026-04-30 10:31 | -19.94173 | 91.08090 | 37148 ft | 549 kts | 136° |
| 2026-04-30 10:31 | -20.23728 | 91.42446 | 37071 ft | 556 kts | 136° |
| 2026-04-30 10:32 | -20.44380 | 91.66570 | 36965 ft | 546 kts | 136° |
| 2026-04-30 10:32 | -20.48096 | 91.70923 | 37010 ft | 543 kts | 136° |
| 2026-04-30 10:32 | -20.55996 | 91.80186 | 37046 ft | 542 kts | 136° |
| 2026-04-30 10:33 | -20.81996 | 92.10777 | 37152 ft | 555 kts | 136° |
| 2026-04-30 10:33 | -21.07507 | 92.40963 | 37024 ft | 554 kts | 135° |
| 2026-04-30 10:34 | -21.48327 | 92.89611 | 37019 ft | 543 kts | 136° |
| 2026-04-30 10:34 | -21.88403 | 93.37784 | 37139 ft | 551 kts | 135° |
| 2026-04-30 10:35 | -22.01273 | 93.53372 | 37076 ft | 560 kts | 135° |
| 2026-04-30 10:35 | -22.07889 | 93.61401 | 37081 ft | 553 kts | 135° |
| 2026-04-30 10:36 | -22.19005 | 93.74915 | 37182 ft | 543 kts | 135° |
| 2026-04-30 10:36 | -22.39049 | 93.99342 | 37168 ft | 544 kts | 135° |
| 2026-04-30 10:36 | -22.47085 | 94.09177 | 37235 ft | 553 kts | 135° |
| 2026-04-30 10:37 | -22.53903 | 94.17531 | 37155 ft | 560 kts | 135° |
| 2026-04-30 10:37 | -22.75162 | 94.43673 | 37169 ft | 564 kts | 135° |
| 2026-04-30 10:38 | -22.93759 | 94.66686 | 37054 ft | 541 kts | 135° |
| 2026-04-30 10:38 | -23.14374 | 94.92224 | 37243 ft | 563 kts | 135° |
| 2026-04-30 10:39 | -23.20785 | 95.00234 | 37144 ft | 563 kts | 135° |
| 2026-04-30 10:39 | -23.27987 | 95.09237 | 37119 ft | 555 kts | 135° |
| 2026-04-30 10:40 | -23.65355 | 95.56114 | 37270 ft | 558 kts | 135° |
| 2026-04-30 10:40 | -23.79434 | 95.73897 | 37064 ft | 573 kts | 135° |
| 2026-04-30 10:41 | -24.03383 | 96.05205 | 37177 ft | 570 kts | 127° |
| 2026-04-30 10:41 | -24.10413 | 96.16881 | 37110 ft | 558 kts | 127° |
| 2026-04-30 10:41 | -24.15741 | 96.25716 | 37075 ft | 555 kts | 127° |
| 2026-04-30 10:42 | -24.28572 | 96.46646 | 37203 ft | 573 kts | 127° |
| 2026-04-30 10:42 | -24.34691 | 96.56720 | 37236 ft | 576 kts | 127° |
| 2026-04-30 10:42 | -24.37536 | 96.61411 | 37117 ft | 571 kts | 127° |
| 2026-04-30 10:42 | -24.41871 | 96.68564 | 37062 ft | 560 kts | 127° |
| 2026-04-30 10:43 | -24.44461 | 96.72837 | 37189 ft | 559 kts | 127° |
| 2026-04-30 10:43 | -24.54359 | 96.89188 | 37272 ft | 571 kts | 127° |
| 2026-04-30 10:43 | -24.61824 | 97.01563 | 37260 ft | 575 kts | 127° |
| 2026-04-30 10:44 | -24.67282 | 97.10642 | 37277 ft | 563 kts | 127° |
| 2026-04-30 10:44 | -24.70031 | 97.15216 | 37218 ft | 565 kts | 127° |
| 2026-04-30 10:44 | -24.88054 | 97.45311 | 37232 ft | 565 kts | 127° |
| 2026-04-30 10:45 | -25.22507 | 98.03379 | 37203 ft | 566 kts | 127° |
| 2026-04-30 10:45 | -25.56565 | 98.61479 | 37190 ft | 567 kts | 127° |
| 2026-04-30 10:46 | -25.90620 | 99.20322 | 37208 ft | 568 kts | 127° |
| 2026-04-30 10:46 | -26.24618 | 99.79803 | 37240 ft | 570 kts | 127° |
| 2026-04-30 10:47 | -26.58223 | 100.39421 | 37241 ft | 571 kts | 128° |
| 2026-04-30 10:47 | -26.91883 | 100.99874 | 37227 ft | 573 kts | 128° |
| 2026-04-30 10:48 | -27.25292 | 101.60728 | 37256 ft | 573 kts | 128° |
| 2026-04-30 10:48 | -27.55178 | 102.15925 | 37280 ft | 572 kts | 128° |
| 2026-04-30 10:49 | -27.59141 | 102.23289 | 37237 ft | 572 kts | 128° |
| 2026-04-30 10:49 | -27.63253 | 102.30940 | 37234 ft | 570 kts | 128° |
| 2026-04-30 10:50 | -27.67349 | 102.38580 | 37239 ft | 569 kts | 128° |
| 2026-04-30 10:50 | -27.71434 | 102.46216 | 37243 ft | 568 kts | 128° |
| 2026-04-30 10:51 | -27.75508 | 102.53846 | 37241 ft | 567 kts | 128° |
| 2026-04-30 10:51 | -27.79569 | 102.61462 | 37270 ft | 566 kts | 128° |
| 2026-04-30 10:52 | -27.83600 | 102.69035 | 37246 ft | 566 kts | 128° |
| 2026-04-30 10:52 | -27.87657 | 102.76673 | 37247 ft | 566 kts | 128° |
| 2026-04-30 10:53 | -27.91703 | 102.84305 | 37240 ft | 566 kts | 128° |
| 2026-04-30 10:53 | -27.95753 | 102.91959 | 37248 ft | 567 kts | 128° |
| 2026-04-30 10:54 | -27.99761 | 102.99569 | 37244 ft | 568 kts | 126° |
| 2026-04-30 10:54 | -28.03355 | 103.07584 | 37252 ft | 573 kts | 121° |
| 2026-04-30 10:55 | -28.06762 | 103.15745 | 37248 ft | 574 kts | 121° |
| 2026-04-30 10:55 | -28.10173 | 103.23918 | 37248 ft | 573 kts | 122° |
| 2026-04-30 10:56 | -28.13602 | 103.32051 | 37249 ft | 573 kts | 122° |
| 2026-04-30 10:56 | -28.17029 | 103.40148 | 37249 ft | 572 kts | 122° |
| 2026-04-30 10:57 | -28.20459 | 103.48269 | 37246 ft | 572 kts | 122° |
| 2026-04-30 10:57 | -28.23882 | 103.56400 | 37246 ft | 571 kts | 122° |
| 2026-04-30 10:58 | -28.27303 | 103.64546 | 37305 ft | 571 kts | 122° |
| 2026-04-30 10:58 | -28.30715 | 103.72689 | 37247 ft | 571 kts | 122° |
| 2026-04-30 10:59 | -28.34092 | 103.80766 | 37244 ft | 569 kts | 122° |
| 2026-04-30 10:59 | -28.37475 | 103.88874 | 37247 ft | 568 kts | 122° |
| 2026-04-30 11:00 | -28.40846 | 103.96967 | 37247 ft | 567 kts | 122° |
| 2026-04-30 11:00 | -28.44212 | 104.05063 | 37253 ft | 566 kts | 122° |
| 2026-04-30 11:01 | -28.47567 | 104.13151 | 37249 ft | 566 kts | 122° |
| 2026-04-30 11:01 | -28.50921 | 104.21253 | 37284 ft | 566 kts | 121° |
| 2026-04-30 11:02 | -28.54244 | 104.29297 | 37261 ft | 566 kts | 122° |
| 2026-04-30 11:02 | -28.57587 | 104.37408 | 37241 ft | 565 kts | 122° |
| 2026-04-30 11:03 | -28.60917 | 104.45502 | 37237 ft | 565 kts | 121° |
| 2026-04-30 11:04 | -28.65877 | 104.57590 | 37242 ft | 564 kts | 121° |
| 2026-04-30 11:04 | -28.69211 | 104.65737 | 37241 ft | 564 kts | 121° |
| 2026-04-30 11:05 | -28.72497 | 104.73782 | 37308 ft | 564 kts | 121° |
| 2026-04-30 11:05 | -28.75799 | 104.81883 | 37255 ft | 564 kts | 121° |
| 2026-04-30 11:06 | -28.79090 | 104.89978 | 37249 ft | 562 kts | 121° |
| 2026-04-30 11:06 | -28.82349 | 104.98011 | 37251 ft | 561 kts | 121° |
| 2026-04-30 11:07 | -28.85619 | 105.06086 | 37252 ft | 560 kts | 121° |
| 2026-04-30 11:07 | -28.88881 | 105.14155 | 37256 ft | 560 kts | 121° |
| 2026-04-30 11:08 | -28.92135 | 105.22223 | 37252 ft | 560 kts | 121° |
| 2026-04-30 11:08 | -28.95387 | 105.30303 | 37296 ft | 560 kts | 121° |
| 2026-04-30 11:09 | -28.98610 | 105.38328 | 37258 ft | 560 kts | 121° |
| 2026-04-30 11:09 | -29.01850 | 105.46412 | 37254 ft | 560 kts | 121° |
| 2026-04-30 11:10 | -29.05082 | 105.54496 | 37250 ft | 559 kts | 121° |
| 2026-04-30 11:10 | -29.08289 | 105.62532 | 37253 ft | 559 kts | 121° |
| 2026-04-30 11:11 | -29.11508 | 105.70614 | 37254 ft | 558 kts | 121° |
| 2026-04-30 11:11 | -29.14722 | 105.78702 | 37256 ft | 558 kts | 121° |
| 2026-04-30 11:12 | -29.17925 | 105.86782 | 37287 ft | 558 kts | 120° |
| 2026-04-30 11:12 | -29.21117 | 105.94853 | 37257 ft | 554 kts | 120° |
| 2026-04-30 11:13 | -29.24254 | 106.02802 | 37250 ft | 550 kts | 120° |
| 2026-04-30 11:13 | -29.27399 | 106.10783 | 37248 ft | 548 kts | 120° |
| 2026-04-30 11:14 | -29.30530 | 106.18744 | 37259 ft | 548 kts | 120° |
| 2026-04-30 11:14 | -29.33661 | 106.26719 | 37254 ft | 549 kts | 120° |
| 2026-04-30 11:15 | -29.36774 | 106.34666 | 37258 ft | 551 kts | 120° |
| 2026-04-30 11:15 | -29.39913 | 106.42702 | 37257 ft | 552 kts | 120° |
| 2026-04-30 11:16 | -29.43038 | 106.50725 | 37254 ft | 550 kts | 120° |
| 2026-04-30 11:16 | -29.46149 | 106.58726 | 37251 ft | 547 kts | 120° |
| 2026-04-30 11:17 | -29.49218 | 106.66635 | 37249 ft | 545 kts | 120° |
| 2026-04-30 11:17 | -29.52291 | 106.74567 | 37253 ft | 543 kts | 120° |
| 2026-04-30 11:18 | -29.55356 | 106.82495 | 37254 ft | 543 kts | 120° |
| 2026-04-30 11:18 | -29.59949 | 106.94407 | 37254 ft | 544 kts | 119° |
| 2026-04-30 11:19 | -29.63007 | 107.02361 | 37261 ft | 545 kts | 119° |
| 2026-04-30 11:19 | -29.66053 | 107.10302 | 37254 ft | 547 kts | 119° |
| 2026-04-30 11:20 | -29.69125 | 107.18326 | 37262 ft | 548 kts | 119° |
| 2026-04-30 11:20 | -29.72194 | 107.26363 | 37253 ft | 550 kts | 119° |
| 2026-04-30 11:21 | -29.75264 | 107.34422 | 37247 ft | 550 kts | 119° |
| 2026-04-30 11:21 | -29.78315 | 107.42446 | 37269 ft | 550 kts | 119° |
| 2026-04-30 11:22 | -29.81371 | 107.50502 | 37260 ft | 549 kts | 119° |
| 2026-04-30 11:22 | -29.84408 | 107.58530 | 37251 ft | 545 kts | 119° |
| 2026-04-30 11:23 | -29.87424 | 107.66516 | 37245 ft | 542 kts | 119° |
| 2026-04-30 11:24 | -29.91910 | 107.78423 | 37247 ft | 539 kts | 119° |
| 2026-04-30 11:24 | -29.94888 | 107.86346 | 37258 ft | 539 kts | 119° |
| 2026-04-30 11:25 | -29.99338 | 107.98224 | 37292 ft | 541 kts | 118° |
| 2026-04-30 11:26 | -30.04449 | 108.14687 | 37254 ft | 546 kts | 113° |
| 2026-04-30 11:26 | -30.06869 | 108.22978 | 37253 ft | 545 kts | 113° |
| 2026-04-30 11:27 | -30.09295 | 108.31200 | 37249 ft | 544 kts | 113° |
| 2026-04-30 11:27 | -30.11739 | 108.39443 | 37249 ft | 543 kts | 113° |
| 2026-04-30 11:28 | -30.15396 | 108.51809 | 37255 ft | 542 kts | 113° |
| 2026-04-30 11:29 | -30.17824 | 108.60057 | 37305 ft | 542 kts | 113° |
| 2026-04-30 11:29 | -30.21420 | 108.72319 | 37246 ft | 537 kts | 112° |
| 2026-04-30 11:30 | -30.24988 | 108.84533 | 37251 ft | 532 kts | 113° |
| 2026-04-30 11:31 | -30.27349 | 108.92636 | 37256 ft | 531 kts | 112° |
| 2026-04-30 11:31 | -30.29691 | 109.00693 | 37249 ft | 532 kts | 112° |
| 2026-04-30 11:32 | -30.32046 | 109.08819 | 37253 ft | 534 kts | 112° |
| 2026-04-30 11:32 | -30.34406 | 109.16982 | 37248 ft | 536 kts | 112° |
| 2026-04-30 11:33 | -30.37946 | 109.29274 | 37246 ft | 536 kts | 112° |
| 2026-04-30 11:33 | -30.40277 | 109.37398 | 37244 ft | 534 kts | 112° |
| 2026-04-30 11:34 | -30.42612 | 109.45554 | 37238 ft | 532 kts | 112° |
| 2026-04-30 11:34 | -30.44933 | 109.53680 | 37234 ft | 531 kts | 112° |
| 2026-04-30 11:35 | -30.47245 | 109.61795 | 37248 ft | 530 kts | 112° |
| 2026-04-30 11:35 | -30.49551 | 109.69913 | 37246 ft | 531 kts | 112° |
| 2026-04-30 11:36 | -30.51858 | 109.78053 | 37246 ft | 531 kts | 112° |
| 2026-04-30 11:36 | -30.54163 | 109.86209 | 37248 ft | 532 kts | 111° |
| 2026-04-30 11:37 | -30.56452 | 109.94333 | 37243 ft | 530 kts | 111° |
| 2026-04-30 11:37 | -30.58731 | 110.02447 | 37235 ft | 527 kts | 111° |
| 2026-04-30 11:38 | -30.60980 | 110.10470 | 37241 ft | 525 kts | 111° |
| 2026-04-30 11:38 | -30.63233 | 110.18530 | 37233 ft | 525 kts | 111° |
| 2026-04-30 11:39 | -30.65482 | 110.26593 | 37245 ft | 525 kts | 111° |
| 2026-04-30 11:39 | -30.67731 | 110.34678 | 37246 ft | 527 kts | 111° |
| 2026-04-30 11:40 | -30.69979 | 110.42781 | 37278 ft | 527 kts | 111° |
| 2026-04-30 11:40 | -30.72206 | 110.50836 | 37236 ft | 526 kts | 111° |
| 2026-04-30 11:41 | -30.74432 | 110.58911 | 37235 ft | 524 kts | 111° |
| 2026-04-30 11:41 | -30.76646 | 110.66961 | 37232 ft | 522 kts | 111° |
| 2026-04-30 11:42 | -30.78845 | 110.74976 | 37233 ft | 520 kts | 111° |
| 2026-04-30 11:42 | -30.81024 | 110.82939 | 37239 ft | 520 kts | 111° |
| 2026-04-30 11:43 | -30.83217 | 110.90970 | 37238 ft | 522 kts | 111° |
| 2026-04-30 11:43 | -30.85411 | 110.99032 | 37240 ft | 524 kts | 111° |
| 2026-04-30 11:44 | -30.87607 | 111.07121 | 37240 ft | 525 kts | 111° |
| 2026-04-30 11:44 | -30.89801 | 111.15231 | 37218 ft | 524 kts | 111° |
| 2026-04-30 11:45 | -30.91970 | 111.23273 | 37241 ft | 523 kts | 111° |
| 2026-04-30 11:45 | -30.94146 | 111.31358 | 37235 ft | 522 kts | 111° |
| 2026-04-30 11:46 | -30.96313 | 111.39429 | 37217 ft | 522 kts | 111° |
| 2026-04-30 11:46 | -30.98473 | 111.47499 | 37215 ft | 521 kts | 111° |
| 2026-04-30 11:47 | -31.00627 | 111.55570 | 37235 ft | 521 kts | 111° |
| 2026-04-30 11:47 | -31.02771 | 111.63623 | 37235 ft | 520 kts | 110° |
| 2026-04-30 11:48 | -31.04892 | 111.71616 | 37228 ft | 519 kts | 110° |
| 2026-04-30 11:48 | -31.07017 | 111.79646 | 37230 ft | 517 kts | 110° |
| 2026-04-30 11:49 | -31.09129 | 111.87646 | 37217 ft | 516 kts | 110° |
| 2026-04-30 11:49 | -31.10879 | 111.94294 | 37223 ft | 516 kts | 110° |
| 2026-04-30 11:50 | -31.12982 | 112.02299 | 37219 ft | 516 kts | 110° |
| 2026-04-30 11:50 | -31.15426 | 112.11630 | 37219 ft | 518 kts | 110° |
| 2026-04-30 11:51 | -31.17173 | 112.18322 | 37219 ft | 519 kts | 110° |
| 2026-04-30 11:51 | -31.19278 | 112.26404 | 37221 ft | 520 kts | 110° |
| 2026-04-30 11:52 | -31.21373 | 112.34477 | 37216 ft | 519 kts | 110° |
| 2026-04-30 11:52 | -31.23462 | 112.42546 | 37210 ft | 518 kts | 110° |
| 2026-04-30 11:53 | -31.25542 | 112.50604 | 37200 ft | 517 kts | 110° |
| 2026-04-30 11:53 | -31.27601 | 112.58598 | 37208 ft | 516 kts | 110° |
| 2026-04-30 11:54 | -31.29664 | 112.66633 | 37210 ft | 516 kts | 110° |
| 2026-04-30 11:54 | -31.31723 | 112.74677 | 37204 ft | 516 kts | 110° |
| 2026-04-30 11:55 | -31.33778 | 112.82728 | 37197 ft | 517 kts | 110° |
| 2026-04-30 11:55 | -31.35836 | 112.90811 | 37206 ft | 519 kts | 109° |
| 2026-04-30 11:56 | -31.37877 | 112.98855 | 37201 ft | 520 kts | 109° |
| 2026-04-30 11:56 | -31.39934 | 113.06983 | 37201 ft | 522 kts | 109° |
| 2026-04-30 11:57 | -31.41990 | 113.15132 | 37195 ft | 523 kts | 109° |
| 2026-04-30 11:57 | -31.44116 | 113.23588 | 37197 ft | 524 kts | 109° |
| 2026-04-30 11:58 | -31.46160 | 113.31739 | 37194 ft | 525 kts | 109° |
| 2026-04-30 11:58 | -31.48133 | 113.39966 | 37194 ft | 525 kts | 105° |
| 2026-04-30 11:59 | -31.49665 | 113.48268 | 36907 ft | 522 kts | 104° |
| 2026-04-30 11:59 | -31.50403 | 113.52457 | 36430 ft | 519 kts | 104° |
| 2026-04-30 11:59 | -31.51130 | 113.56567 | 36011 ft | 513 kts | 104° |
| 2026-04-30 12:00 | -31.51848 | 113.60585 | 35541 ft | 508 kts | 104° |
| 2026-04-30 12:00 | -31.52578 | 113.64622 | 35048 ft | 505 kts | 104° |
| 2026-04-30 12:00 | -31.53305 | 113.68625 | 34576 ft | 500 kts | 104° |
| 2026-04-30 12:00 | -31.54026 | 113.72597 | 34128 ft | 496 kts | 104° |
| 2026-04-30 12:01 | -31.54739 | 113.76531 | 33611 ft | 491 kts | 104° |
| 2026-04-30 12:01 | -31.55443 | 113.80425 | 33141 ft | 486 kts | 104° |
| 2026-04-30 12:01 | -31.56140 | 113.84289 | 32700 ft | 481 kts | 104° |
| 2026-04-30 12:01 | -31.56827 | 113.88108 | 32263 ft | 476 kts | 104° |
| 2026-04-30 12:02 | -31.57505 | 113.91887 | 31833 ft | 471 kts | 104° |
| 2026-04-30 12:02 | -31.58167 | 113.95578 | 31414 ft | 467 kts | 104° |
| 2026-04-30 12:02 | -31.58832 | 113.99281 | 30985 ft | 462 kts | 104° |
| 2026-04-30 12:02 | -31.59490 | 114.02953 | 30578 ft | 458 kts | 104° |
| 2026-04-30 12:03 | -31.60141 | 114.06590 | 30146 ft | 454 kts | 104° |
| 2026-04-30 12:03 | -31.61425 | 114.13782 | 29222 ft | 446 kts | 104° |
| 2026-04-30 12:03 | -31.62055 | 114.17322 | 28801 ft | 441 kts | 104° |
| 2026-04-30 12:04 | -31.62678 | 114.20823 | 28378 ft | 436 kts | 104° |
| 2026-04-30 12:04 | -31.63283 | 114.24238 | 27968 ft | 432 kts | 104° |
| 2026-04-30 12:04 | -31.63892 | 114.27670 | 27548 ft | 428 kts | 104° |
| 2026-04-30 12:04 | -31.64492 | 114.31064 | 27142 ft | 424 kts | 104° |
| 2026-04-30 12:05 | -31.65088 | 114.34441 | 26747 ft | 420 kts | 104° |
| 2026-04-30 12:05 | -31.65677 | 114.37781 | 26369 ft | 415 kts | 104° |
| 2026-04-30 12:05 | -31.66258 | 114.41078 | 26034 ft | 410 kts | 104° |
| 2026-04-30 12:05 | -31.66832 | 114.44343 | 25654 ft | 407 kts | 104° |
| 2026-04-30 12:06 | -31.67401 | 114.47588 | 25256 ft | 404 kts | 104° |
| 2026-04-30 12:06 | -31.67968 | 114.50820 | 24884 ft | 402 kts | 104° |
| 2026-04-30 12:06 | -31.68527 | 114.54017 | 24502 ft | 399 kts | 104° |
| 2026-04-30 12:06 | -31.69076 | 114.57158 | 24131 ft | 397 kts | 104° |
| 2026-04-30 12:07 | -31.69630 | 114.60332 | 23753 ft | 395 kts | 104° |
| 2026-04-30 12:07 | -31.70178 | 114.63483 | 23291 ft | 394 kts | 104° |
| 2026-04-30 12:07 | -31.70725 | 114.66626 | 22873 ft | 391 kts | 104° |
| 2026-04-30 12:07 | -31.71265 | 114.69736 | 22485 ft | 388 kts | 104° |
| 2026-04-30 12:08 | -31.71802 | 114.72837 | 22090 ft | 385 kts | 104° |
| 2026-04-30 12:08 | -31.72332 | 114.75898 | 21710 ft | 382 kts | 104° |
| 2026-04-30 12:08 | -31.72860 | 114.78955 | 21318 ft | 379 kts | 104° |
| 2026-04-30 12:08 | -31.73374 | 114.81935 | 20951 ft | 377 kts | 104° |
| 2026-04-30 12:09 | -31.73893 | 114.84939 | 20588 ft | 374 kts | 104° |
| 2026-04-30 12:09 | -31.74407 | 114.87928 | 20228 ft | 372 kts | 104° |
| 2026-04-30 12:09 | -31.74916 | 114.90890 | 19848 ft | 369 kts | 104° |
| 2026-04-30 12:09 | -31.75422 | 114.93838 | 19486 ft | 367 kts | 104° |
| 2026-04-30 12:10 | -31.75925 | 114.96775 | 19114 ft | 366 kts | 104° |
| 2026-04-30 12:10 | -31.76425 | 114.99694 | 18747 ft | 364 kts | 104° |
| 2026-04-30 12:10 | -31.76917 | 115.02573 | 18365 ft | 363 kts | 104° |
| 2026-04-30 12:10 | -31.77413 | 115.05474 | 17943 ft | 362 kts | 104° |
| 2026-04-30 12:11 | -31.77905 | 115.08360 | 17549 ft | 360 kts | 104° |
| 2026-04-30 12:11 | -31.78393 | 115.11230 | 17168 ft | 357 kts | 104° |
| 2026-04-30 12:11 | -31.78879 | 115.14090 | 16797 ft | 355 kts | 104° |
| 2026-04-30 12:11 | -31.79360 | 115.16924 | 16433 ft | 353 kts | 104° |
| 2026-04-30 12:12 | -31.79839 | 115.19743 | 16067 ft | 351 kts | 104° |
| 2026-04-30 12:12 | -31.80315 | 115.22551 | 15703 ft | 349 kts | 104° |
| 2026-04-30 12:12 | -31.80786 | 115.25338 | 15341 ft | 347 kts | 104° |
| 2026-04-30 12:12 | -31.81271 | 115.28078 | 14990 ft | 345 kts | 107° |
| 2026-04-30 12:13 | -31.81885 | 115.30829 | 14633 ft | 343 kts | 109° |
| 2026-04-30 12:13 | -31.82528 | 115.33485 | 14306 ft | 341 kts | 109° |
| 2026-04-30 12:13 | -31.83180 | 115.36168 | 13915 ft | 341 kts | 109° |
| 2026-04-30 12:13 | -31.83825 | 115.38848 | 13519 ft | 340 kts | 109° |
| 2026-04-30 12:14 | -31.84459 | 115.41518 | 13136 ft | 338 kts | 109° |
| 2026-04-30 12:14 | -31.85086 | 115.44180 | 12769 ft | 337 kts | 109° |
| 2026-04-30 12:14 | -31.85707 | 115.46828 | 12405 ft | 335 kts | 109° |
| 2026-04-30 12:14 | -31.86324 | 115.49470 | 12059 ft | 334 kts | 109° |
| 2026-04-30 12:15 | -31.86938 | 115.52100 | 11696 ft | 333 kts | 109° |
| 2026-04-30 12:15 | -31.87309 | 115.54723 | 11333 ft | 331 kts | 90° |
| 2026-04-30 12:15 | -31.86837 | 115.57353 | 11004 ft | 330 kts | 68° |
| 2026-04-30 12:15 | -31.85865 | 115.59778 | 10692 ft | 327 kts | 62° |
| 2026-04-30 12:16 | -31.84801 | 115.62128 | 10430 ft | 323 kts | 60° |
| 2026-04-30 12:16 | -31.83698 | 115.64388 | 10296 ft | 314 kts | 57° |
| 2026-04-30 12:16 | -31.82559 | 115.66547 | 10126 ft | 306 kts | 57° |
| 2026-04-30 12:16 | -31.81440 | 115.68650 | 9899 ft | 303 kts | 57° |
| 2026-04-30 12:17 | -31.79159 | 115.72905 | 8909 ft | 314 kts | 56° |
| 2026-04-30 12:17 | -31.77967 | 115.75120 | 8428 ft | 319 kts | 56° |
| 2026-04-30 12:17 | -31.76789 | 115.77307 | 7952 ft | 323 kts | 56° |
| 2026-04-30 12:18 | -31.75583 | 115.79546 | 7471 ft | 325 kts | 57° |
| 2026-04-30 12:18 | -31.74387 | 115.81763 | 6977 ft | 317 kts | 56° |
| 2026-04-30 12:18 | -31.73106 | 115.83821 | 6457 ft | 308 kts | 41° |
| 2026-04-30 12:18 | -31.71374 | 115.85187 | 5939 ft | 294 kts | 23° |
| 2026-04-30 12:19 | -31.69533 | 115.86131 | 5403 ft | 283 kts | 19° |
| 2026-04-30 12:19 | -31.67725 | 115.86959 | 4879 ft | 275 kts | 19° |
| 2026-04-30 12:19 | -31.65960 | 115.87733 | 4374 ft | 266 kts | 19° |
| 2026-04-30 12:19 | -31.64238 | 115.88473 | 4159 ft | 261 kts | 19° |
| 2026-04-30 12:20 | -31.62566 | 115.89186 | 3914 ft | 258 kts | 19° |
| 2026-04-30 12:20 | -31.60886 | 115.89890 | 3611 ft | 254 kts | 21° |
| 2026-04-30 12:20 | -31.59400 | 115.90908 | 3487 ft | 242 kts | 40° |
| 2026-04-30 12:20 | -31.58380 | 115.92350 | 3433 ft | 220 kts | 74° |
| 2026-04-30 12:21 | -31.58088 | 115.94001 | 3502 ft | 203 kts | 88° |
| 2026-04-30 12:21 | -31.57941 | 115.95656 | 3483 ft | 205 kts | 96° |
| 2026-04-30 12:21 | -31.58083 | 115.97309 | 3497 ft | 202 kts | 110° |
| 2026-04-30 12:21 | -31.58679 | 115.98700 | 3482 ft | 190 kts | 131° |
| 2026-04-30 12:22 | -31.59392 | 116.00043 | 3499 ft | 196 kts | 129° |
| 2026-04-30 12:22 | -31.60116 | 116.01388 | 3496 ft | 194 kts | 129° |
| 2026-04-30 12:22 | -31.60839 | 116.02720 | 3493 ft | 193 kts | 129° |
| 2026-04-30 12:22 | -31.61559 | 116.04041 | 3495 ft | 193 kts | 130° |
| 2026-04-30 12:23 | -31.62349 | 116.05304 | 3494 ft | 191 kts | 136° |
| 2026-04-30 12:23 | -31.63298 | 116.06333 | 3466 ft | 182 kts | 160° |
| 2026-04-30 12:23 | -31.64491 | 116.06509 | 3477 ft | 173 kts | 194° |
| 2026-04-30 12:23 | -31.65641 | 116.06133 | 3498 ft | 175 kts | 197° |
| 2026-04-30 12:24 | -31.66782 | 116.05675 | 3479 ft | 173 kts | 205° |
| 2026-04-30 12:24 | -31.67863 | 116.05061 | 3498 ft | 174 kts | 207° |
| 2026-04-30 12:24 | -31.68940 | 116.04405 | 3493 ft | 173 kts | 207° |
| 2026-04-30 12:24 | -31.70009 | 116.03755 | 3493 ft | 173 kts | 207° |
| 2026-04-30 12:25 | -31.71126 | 116.03246 | 3489 ft | 173 kts | 199° |
| 2026-04-30 12:25 | -31.72287 | 116.02862 | 3490 ft | 174 kts | 197° |
| 2026-04-30 12:25 | -31.73459 | 116.02506 | 3492 ft | 174 kts | 196° |
| 2026-04-30 12:25 | -31.74639 | 116.02157 | 3485 ft | 176 kts | 196° |
| 2026-04-30 12:26 | -31.75816 | 116.01813 | 3330 ft | 177 kts | 195° |
| 2026-04-30 12:26 | -31.77009 | 116.01466 | 3082 ft | 175 kts | 195° |
| 2026-04-30 12:26 | -31.78174 | 116.01128 | 2885 ft | 168 kts | 195° |
| 2026-04-30 12:26 | -31.79311 | 116.00798 | 2807 ft | 168 kts | 195° |
| 2026-04-30 12:27 | -31.80419 | 116.00475 | 2580 ft | 160 kts | 195° |
| 2026-04-30 12:27 | -31.81461 | 116.00172 | 2365 ft | 149 kts | 195° |
| 2026-04-30 12:27 | -31.82431 | 115.99890 | 2157 ft | 140 kts | 195° |
| 2026-04-30 12:27 | -31.83366 | 115.99617 | 2026 ft | 138 kts | 195° |
| 2026-04-30 12:28 | -31.84294 | 115.99350 | 1955 ft | 138 kts | 195° |
| 2026-04-30 12:28 | -31.85236 | 115.99082 | 1843 ft | 140 kts | 195° |
| 2026-04-30 12:28 | -31.86185 | 115.98801 | 1664 ft | 141 kts | 195° |
| 2026-04-30 12:28 | -31.87129 | 115.98514 | 1452 ft | 143 kts | 195° |
| 2026-04-30 12:29 | -31.88101 | 115.98225 | 1211 ft | 145 kts | 194° |
| 2026-04-30 12:29 | -31.89098 | 115.97958 | 946 ft | 148 kts | 194° |
| 2026-04-30 12:29 | -31.90096 | 115.97646 | 654 ft | 148 kts | 195° |
| 2026-04-30 12:29 | -31.91076 | 115.97359 | 467 ft | 146 kts | 194° |
| 2026-04-30 12:30 | -31.92066 | 115.97081 | 264 ft | 146 kts | 195° |
| 2026-04-30 12:30 | -31.93049 | 115.96792 | 110 ft | 145 kts | 194° |
| 2026-04-30 12:30 | -31.93985 | 115.96519 | 70 ft | 127 kts | 194° |
| 2026-04-30 12:30 | -31.94714 | 115.96303 | 66 ft | 92 kts | 194° |
| 2026-04-30 12:31 | -31.95053 | 115.96242 | 62 ft | 22 kts | 142° |
| 2026-04-30 12:31 | -31.95091 | 115.96336 | 69 ft | 9 kts | 107° |
| 2026-04-30 12:31 | -31.95109 | 115.96406 | 64 ft | 9 kts | 106° |
| 2026-04-30 12:31 | -31.95123 | 115.96476 | 68 ft | 9 kts | 92° |
| 2026-04-30 12:32 | -31.95103 | 115.96545 | 65 ft | 9 kts | 60° |
| 2026-04-30 12:32 | -31.95075 | 115.96567 | 63 ft | 0 kts | 19° |